createdAt,value
2024-01-25T01:43:19.450Z,100623.94
2024-01-25T01:46:40.445Z,100623.94
2024-01-25T01:49:44.226Z,100645.72
2024-01-25T01:52:49.142Z,100641.16
2024-01-25T01:55:52.833Z,100654.53
2024-01-25T01:59:06.949Z,100641.81
2024-01-25T02:02:10.388Z,100643.84
2024-01-25T02:05:14.532Z,100639.47
2024-01-25T02:08:17.917Z,100643.22
2024-01-25T02:11:21.495Z,100645.53
2024-01-25T02:14:24.462Z,100655.91
2024-01-25T02:17:27.824Z,100641.69
2024-01-25T02:20:30.919Z,100652.59
2024-01-25T02:23:34.398Z,100635.84
2024-01-25T02:26:37.660Z,100645.47
2024-01-25T02:29:40.937Z,100678.31
2024-01-25T02:32:45.434Z,100653.41
2024-01-25T02:35:54.459Z,100655.62
2024-01-25T02:38:58.442Z,100668.50
2024-01-25T02:42:01.579Z,100676.09
2024-01-25T02:45:04.775Z,100652.75
2024-01-25T02:48:08.487Z,100668.78
2024-01-25T02:51:11.383Z,100654.78
2024-01-25T02:54:14.372Z,100663.78
2024-01-25T02:57:16.987Z,100660.69
2024-01-25T03:00:20.173Z,100681.59
2024-01-25T03:03:24.801Z,100661.81
2024-01-25T03:06:28.573Z,100656.03
2024-01-25T03:09:31.647Z,100681.66
2024-01-25T03:12:35.182Z,100653.22
2024-01-25T03:15:39.356Z,100667.53
2024-01-25T03:18:43.595Z,100664.06
2024-01-25T03:21:46.414Z,100664.66
2024-01-25T03:24:49.741Z,100680.31
2024-01-25T03:27:52.825Z,100674.34
2024-01-25T03:30:56.189Z,100656.34
2024-01-25T03:33:59.056Z,100662.06
2024-01-25T03:37:02.396Z,100644.09
2024-01-25T03:40:06.405Z,100661.09
2024-01-25T03:43:18.850Z,100655.94
2024-01-25T03:46:24.221Z,100635.88
2024-01-25T03:49:28.731Z,100662.75
2024-01-25T03:52:32.028Z,100663.09
2024-01-25T03:55:35.540Z,100648.75
2024-01-25T03:58:38.504Z,100662.53
2024-01-25T04:01:49.796Z,100677.16
2024-01-25T04:04:53.536Z,100679.00
2024-01-25T04:07:56.735Z,100698.34
2024-01-25T04:10:59.688Z,100696.72
2024-01-25T04:14:02.731Z,100700.53
2024-01-25T04:17:05.998Z,100695.47
2024-01-25T04:20:09.133Z,100694.91
2024-01-25T04:23:12.660Z,100679.22
2024-01-25T04:26:17.613Z,100707.94
2024-01-25T04:29:20.855Z,100716.84
2024-01-25T04:32:24.962Z,100703.84
2024-01-25T04:35:28.233Z,100711.06
2024-01-25T04:38:33.835Z,100704.72
2024-01-25T04:41:37.930Z,100714.53
2024-01-25T04:44:40.767Z,100714.09
2024-01-25T04:47:44.375Z,100717.88
2024-01-25T04:50:50.153Z,100728.44
2024-01-25T04:53:53.489Z,100729.28
2024-01-25T04:56:56.835Z,100724.41
2024-01-25T05:00:00.217Z,100705.72
2024-01-25T05:03:03.533Z,100700.25
2024-01-25T05:06:07.038Z,100726.97
2024-01-25T05:09:10.237Z,100720.94
2024-01-25T05:12:13.758Z,100710.31
2024-01-25T05:15:16.894Z,100717.59
2024-01-25T05:18:20.181Z,100713.56
2024-01-25T05:21:24.242Z,100726.22
2024-01-25T05:24:27.595Z,100730.38
2024-01-25T05:27:30.777Z,100724.19
2024-01-25T05:30:37.515Z,100741.38
2024-01-25T05:33:41.203Z,100755.37
2024-01-25T05:36:46.160Z,100755.16
2024-01-25T05:39:49.278Z,100749.63
2024-01-25T05:42:52.495Z,100765.50
2024-01-25T05:45:55.396Z,100756.69
2024-01-25T05:48:59.203Z,100769.59
2024-01-25T05:52:02.562Z,100774.91
2024-01-25T05:55:07.108Z,100790.13
2024-01-25T05:58:10.240Z,100795.75
2024-01-25T06:01:13.809Z,100789.56
2024-01-25T06:04:17.477Z,100779.34
2024-01-25T06:07:21.895Z,100796.28
2024-01-25T06:10:25.550Z,100803.81
2024-01-25T06:13:33.467Z,100800.72
2024-01-25T06:16:37.117Z,100810.81
2024-01-25T06:19:40.324Z,100793.06
2024-01-25T06:22:43.482Z,100783.75
2024-01-25T06:25:46.641Z,100777.53
2024-01-25T06:28:50.116Z,100760.25
2024-01-25T06:31:53.218Z,100769.25
2024-01-25T06:34:56.819Z,100746.69
2024-01-25T06:37:59.926Z,100725.59
2024-01-25T06:41:04.284Z,100722.72
2024-01-25T06:44:07.969Z,100724.47
2024-01-25T06:47:11.748Z,100700.88
2024-01-25T06:50:15.127Z,100699.50
2024-01-25T06:53:18.920Z,100695.41
2024-01-25T06:56:25.817Z,100681.31
2024-01-25T06:59:29.677Z,100664.28
2024-01-25T07:02:34.044Z,100655.91
2024-01-25T07:05:38.121Z,100664.94
2024-01-25T07:08:44.175Z,100620.41
2024-01-25T07:11:48.880Z,100637.44
2024-01-25T07:14:52.914Z,100625.66
2024-01-25T07:18:00.343Z,100604.16
2024-01-25T07:21:07.847Z,100628.69
2024-01-25T07:24:17.878Z,100630.19
2024-01-25T07:27:21.298Z,100627.91
2024-01-25T07:30:26.236Z,100618.22
2024-01-25T07:33:29.703Z,100628.84
2024-01-25T07:36:36.857Z,100595.31
2024-01-25T07:39:40.170Z,100616.91
2024-01-25T07:42:43.660Z,100632.28
2024-01-25T07:45:49.766Z,100615.31
2024-01-25T07:48:54.743Z,100614.13
2024-01-25T07:52:02.238Z,100595.44
2024-01-25T07:55:06.920Z,100615.00
2024-01-25T07:58:10.702Z,100602.13
2024-01-25T08:01:20.493Z,100649.38
2024-01-25T08:04:28.150Z,100641.69
2024-01-25T08:07:31.445Z,100647.16
2024-01-25T08:10:36.478Z,100648.19
2024-01-25T08:13:45.983Z,100651.34
2024-01-25T08:16:49.685Z,100668.41
2024-01-25T08:19:53.309Z,100667.53
2024-01-25T08:22:56.722Z,100653.72
2024-01-25T08:26:00.298Z,100648.06
2024-01-25T08:29:03.624Z,100670.69
2024-01-25T08:32:07.161Z,100649.59
2024-01-25T08:35:16.222Z,100646.44
2024-01-25T08:38:19.593Z,100640.72
2024-01-25T08:41:23.298Z,100653.63
2024-01-25T08:44:26.618Z,100650.53
2024-01-25T08:47:30.264Z,100685.78
2024-01-25T08:50:34.786Z,100675.97
2024-01-25T08:53:38.931Z,100667.50
2024-01-25T08:56:42.263Z,100675.31
2024-01-25T08:59:45.685Z,100670.97
2024-01-25T09:02:49.084Z,100639.25
2024-01-25T09:05:53.514Z,100673.50
2024-01-25T09:08:57.493Z,100681.81
2024-01-25T09:12:01.985Z,100622.78
2024-01-25T09:15:05.962Z,100667.25
2024-01-25T09:18:09.801Z,100659.06
2024-01-25T09:21:14.568Z,100665.16
2024-01-25T09:24:17.965Z,100685.03
2024-01-25T09:27:21.651Z,100693.94
2024-01-25T09:30:31.233Z,100667.59
2024-01-25T09:33:39.386Z,100706.84
2024-01-25T09:36:43.955Z,100685.03
2024-01-25T09:39:50.122Z,100708.94
2024-01-25T09:42:56.672Z,100702.66
2024-01-25T09:46:01.546Z,100727.75
2024-01-25T09:49:09.369Z,100712.94
2024-01-25T09:52:20.670Z,100716.94
2024-01-25T09:55:27.687Z,100720.12
2024-01-25T09:58:41.145Z,100737.38
2024-01-25T10:01:50.479Z,100719.22
2024-01-25T10:04:55.361Z,100713.12
2024-01-25T10:08:02.835Z,100717.31
2024-01-25T10:11:09.497Z,100722.22
2024-01-25T10:14:12.830Z,100701.97
2024-01-25T10:17:21.878Z,100713.06
2024-01-25T14:30:42.348Z,100764.69
2024-01-25T14:33:46.658Z,100759.69
2024-01-25T14:36:51.606Z,100798.25
2024-01-25T14:40:06.951Z,100805.72
2024-01-25T14:43:17.747Z,100783.88
2024-01-25T14:46:20.873Z,100814.47
2024-01-25T14:49:25.082Z,100802.91
2024-01-25T14:52:28.816Z,100798.44
2024-01-25T14:55:32.081Z,100805.56
2024-01-25T14:58:35.862Z,100802.38
2024-01-25T15:01:38.751Z,100812.28
2024-01-25T15:04:42.460Z,100821.94
2024-01-25T15:07:45.422Z,100809.22
2024-01-25T15:10:48.731Z,100810.25
2024-01-25T15:13:51.906Z,100812.12
2024-01-25T15:16:55.255Z,100805.78
2024-01-25T15:19:58.125Z,100822.97
2024-01-25T15:23:03.009Z,100835.38
2024-01-25T15:26:06.524Z,100846.84
2024-01-25T15:29:09.841Z,100832.56
2024-01-25T15:32:13.257Z,100851.94
2024-01-25T15:35:16.752Z,100842.28
2024-01-25T15:38:20.831Z,100851.16
2024-01-25T15:41:24.028Z,100849.56
2024-01-25T15:44:27.318Z,100850.94
2024-01-25T15:47:30.485Z,100823.59
2024-01-25T15:50:35.225Z,100858.13
2024-01-25T15:53:38.529Z,100855.78
2024-01-25T15:56:42.611Z,100852.03
2024-01-25T15:59:48.404Z,100848.97
2024-01-25T16:02:53.068Z,100843.53
2024-01-25T16:05:58.156Z,100854.19
2024-01-25T16:09:05.650Z,100842.19
2024-01-25T16:12:10.849Z,100836.78
2024-01-25T16:15:15.286Z,100851.25
2024-01-25T16:18:19.146Z,100845.16
2024-01-25T16:21:23.646Z,100842.50
2024-01-25T16:24:27.936Z,100832.78
2024-01-25T16:27:31.394Z,100840.87
2024-01-25T16:30:35.466Z,100848.41
2024-01-25T16:33:38.763Z,100848.06
2024-01-25T16:36:42.432Z,100855.00
2024-01-25T16:39:45.716Z,100847.44
2024-01-25T16:42:49.516Z,100862.25
2024-01-25T16:45:54.909Z,100827.25
2024-01-25T16:48:59.150Z,100843.31
2024-01-25T16:52:02.704Z,100846.53
2024-01-25T16:55:08.535Z,100842.28
2024-01-25T16:58:11.620Z,100831.84
2024-01-25T17:01:17.021Z,100843.75
2024-01-25T17:04:20.629Z,100845.31
2024-01-25T17:07:24.260Z,100837.97
2024-01-25T17:10:27.893Z,100842.38
2024-01-25T17:13:31.481Z,100856.34
2024-01-25T17:16:34.500Z,100858.16
2024-01-25T17:19:39.263Z,100847.25
2024-01-25T17:22:42.269Z,100858.53
2024-01-25T17:25:45.827Z,100864.13
2024-01-25T17:28:50.206Z,100862.38
2024-01-25T17:31:54.083Z,100884.59
2024-01-25T17:34:57.950Z,100868.03
2024-01-25T17:38:02.322Z,100868.91
2024-01-25T17:41:05.476Z,100881.31
2024-01-25T17:44:09.776Z,100884.47
2024-01-25T17:47:13.005Z,100886.81
2024-01-25T17:50:16.616Z,100885.88
2024-01-25T17:53:19.845Z,100895.94
2024-01-25T17:56:23.385Z,100890.78
2024-01-25T17:59:28.316Z,100903.53
2024-01-25T18:02:32.191Z,100897.16
2024-01-25T18:05:36.553Z,100876.97
2024-01-25T18:08:41.321Z,100896.06
2024-01-25T18:11:46.962Z,100894.56
2024-01-25T18:14:50.969Z,100913.03
2024-01-25T18:17:55.814Z,100902.00
2024-01-25T18:21:00.220Z,100924.72
2024-01-25T18:24:04.504Z,100880.53
2024-01-25T18:27:08.261Z,100935.81
2024-01-25T18:30:13.543Z,100921.22
2024-01-25T18:33:18.136Z,100923.84
2024-01-25T18:36:22.126Z,100910.63
2024-01-25T18:39:26.383Z,100895.44
2024-01-25T18:42:32.249Z,100904.38
2024-01-25T18:45:36.930Z,100914.69
2024-01-25T18:48:42.454Z,100890.50
2024-01-25T18:51:47.065Z,100903.22
2024-01-25T18:54:53.733Z,100910.81
2024-01-25T18:57:58.939Z,100905.25
2024-01-25T19:01:04.979Z,100917.34
2024-01-25T19:04:12.066Z,100918.41
2024-01-25T19:07:17.332Z,100923.66
2024-01-25T19:10:22.735Z,100901.37
2024-01-25T19:13:27.751Z,100925.25
2024-01-25T19:16:32.648Z,100936.38
2024-01-25T19:19:39.528Z,100921.75
2024-01-25T19:22:44.474Z,100919.81
2024-01-25T19:25:50.808Z,100921.94
2024-01-25T19:28:56.111Z,100939.19
2024-01-25T19:32:00.660Z,100940.09
2024-01-25T19:35:06.926Z,100945.47
2024-01-25T19:38:11.839Z,100947.06
2024-01-25T19:41:17.055Z,100939.72
2024-01-25T19:44:22.015Z,100927.03
2024-01-25T19:47:27.290Z,100951.97
2024-01-25T19:50:32.641Z,100955.25
2024-01-25T19:53:37.311Z,100963.31
2024-01-25T19:56:43.012Z,100964.69
2024-01-25T19:59:48.832Z,100972.22
2024-01-25T20:02:56.287Z,100967.66
2024-01-25T20:06:02.028Z,100972.00
2024-01-25T20:09:07.800Z,100977.06
2024-01-25T20:12:13.199Z,100987.47
2024-01-25T20:15:20.960Z,100991.75
2024-01-25T20:18:27.361Z,101000.88
2024-01-25T20:21:32.260Z,100965.06
2024-01-25T20:24:37.879Z,100997.62
2024-01-25T20:27:44.679Z,100986.19
2024-01-25T20:30:52.141Z,100988.56
2024-01-25T20:33:56.889Z,100978.00
2024-01-25T20:37:02.502Z,100993.34
2024-01-25T20:40:09.736Z,100985.50
2024-01-25T20:43:15.275Z,100986.41
2024-01-25T20:46:19.942Z,100989.22
2024-01-25T20:49:25.603Z,100982.37
2024-01-25T20:52:30.272Z,100997.03
2024-01-25T20:55:35.002Z,100953.59
2024-01-25T20:58:39.554Z,100995.44
2024-01-25T21:01:44.226Z,100991.72
2024-01-25T21:04:47.684Z,101002.75
2024-01-25T21:07:51.550Z,100988.00
2024-01-25T21:10:55.403Z,101001.94
2024-01-25T21:13:59.388Z,100977.78
2024-01-25T21:17:02.613Z,100979.22
2024-01-25T21:20:08.800Z,100986.34
2024-01-25T21:23:12.192Z,100975.91
2024-01-25T21:26:15.872Z,100999.06
2024-01-25T21:29:19.227Z,101001.47
2024-01-25T21:32:22.813Z,100985.75
2024-01-25T21:35:27.738Z,101003.81
2024-01-25T21:38:31.425Z,101013.34
2024-01-25T21:41:35.097Z,101027.00
2024-01-25T21:44:39.078Z,101028.62
2024-01-25T21:47:42.960Z,101035.91
2024-01-25T21:50:46.782Z,101021.13
2024-01-25T21:53:50.003Z,101050.25
2024-01-25T21:56:53.673Z,101052.84
2024-01-25T21:59:57.104Z,101052.41
2024-01-25T22:03:01.291Z,101062.31
2024-01-25T22:06:05.420Z,101063.16
2024-01-25T22:09:08.920Z,101062.91
2024-01-25T22:12:13.534Z,101068.81
2024-01-25T22:15:16.924Z,101087.22
2024-01-25T22:18:20.929Z,101081.88
2024-01-25T22:21:24.276Z,101060.69
2024-01-25T22:24:29.260Z,101066.41
2024-01-25T22:27:32.807Z,101086.31
2024-01-25T22:30:36.564Z,101079.00
2024-01-25T22:33:40.603Z,101070.97
2024-01-25T22:36:45.535Z,101080.63
2024-01-25T22:39:48.938Z,101073.22
2024-01-25T22:42:52.528Z,101073.41
2024-01-25T22:45:56.704Z,101077.22
2024-01-25T22:49:00.624Z,101019.22
2024-01-25T22:52:04.622Z,101052.31
2024-01-25T22:55:08.782Z,101052.44
2024-01-25T22:58:13.489Z,101038.78
2024-01-25T23:01:17.921Z,101043.75
2024-01-25T23:04:21.756Z,101033.53
2024-01-25T23:07:25.285Z,101037.69
2024-01-25T23:10:28.606Z,101035.44
2024-01-25T23:13:32.744Z,101017.94
2024-01-25T23:16:36.762Z,101031.47
2024-01-25T23:19:40.446Z,101013.91
2024-01-25T23:22:43.892Z,101037.91
2024-01-25T23:25:48.829Z,101042.31
2024-01-25T23:28:52.138Z,101032.09
2024-01-25T23:31:56.564Z,101036.25
2024-01-25T23:35:00.235Z,101040.59
2024-01-25T23:38:04.556Z,101032.66
2024-01-25T23:41:08.228Z,101053.91
2024-01-25T23:44:11.959Z,101049.50
2024-01-25T23:47:16.552Z,101034.19
2024-01-25T23:50:20.413Z,101053.72
2024-01-25T23:53:24.317Z,101040.25
2024-01-25T23:56:28.060Z,101049.03
2024-01-25T23:59:31.367Z,101055.66
